sensor_id;sensor_type;location;lat;lon;timestamp;temperature;humidity
38848;DHT22;24602;44.780;20.408;2022-08-18T00:01:34;26.10;89.60
38848;DHT22;24602;44.780;20.408;2022-08-18T00:04:04;26.00;90.10
38848;DHT22;24602;44.780;20.408;2022-08-18T00:06:54;26.00;90.30
38848;DHT22;24602;44.780;20.408;2022-08-18T00:09:24;25.90;90.60
38848;DHT22;24602;44.780;20.408;2022-08-18T00:12:02;25.90;90.70
38848;DHT22;24602;44.780;20.408;2022-08-18T00:14:32;25.90;91.00
38848;DHT22;24602;44.780;20.408;2022-08-18T00:17:01;25.80;90.90
38848;DHT22;24602;44.780;20.408;2022-08-18T00:19:33;25.80;90.90
38848;DHT22;24602;44.780;20.408;2022-08-18T00:22:18;25.80;90.80
38848;DHT22;24602;44.780;20.408;2022-08-18T00:24:49;25.80;90.70
38848;DHT22;24602;44.780;20.408;2022-08-18T00:27:22;25.90;90.70
38848;DHT22;24602;44.780;20.408;2022-08-18T00:29:59;26.00;90.80
38848;DHT22;24602;44.780;20.408;2022-08-18T00:32:35;26.00;90.90
38848;DHT22;24602;44.780;20.408;2022-08-18T00:35:08;26.10;91.90
38848;DHT22;24602;44.780;20.408;2022-08-18T00:37:36;26.10;91.90
38848;DHT22;24602;44.780;20.408;2022-08-18T00:40:22;26.10;92.60
38848;DHT22;24602;44.780;20.408;2022-08-18T00:42:58;26.00;92.00
38848;DHT22;24602;44.780;20.408;2022-08-18T00:45:32;26.00;92.20
38848;DHT22;24602;44.780;20.408;2022-08-18T00:48:07;26.00;92.50
38848;DHT22;24602;44.780;20.408;2022-08-18T00:50:41;26.00;92.70
38848;DHT22;24602;44.780;20.408;2022-08-18T00:53:18;26.00;92.70
38848;DHT22;24602;44.780;20.408;2022-08-18T00:56:02;26.00;92.80
38848;DHT22;24602;44.780;20.408;2022-08-18T00:58:43;26.00;93.10
38848;DHT22;24602;44.780;20.408;2022-08-18T01:01:23;26.00;93.10
38848;DHT22;24602;44.780;20.408;2022-08-18T01:04:06;26.00;93.30
38848;DHT22;24602;44.780;20.408;2022-08-18T01:06:54;26.00;93.50
38848;DHT22;24602;44.780;20.408;2022-08-18T01:09:37;25.90;94.00
38848;DHT22;24602;44.780;20.408;2022-08-18T01:12:10;25.90;94.50
38848;DHT22;24602;44.780;20.408;2022-08-18T01:15:00;25.80;95.20
38848;DHT22;24602;44.780;20.408;2022-08-18T01:17:31;25.70;96.00
38848;DHT22;24602;44.780;20.408;2022-08-18T01:20:25;25.70;96.30
38848;DHT22;24602;44.780;20.408;2022-08-18T01:23:19;25.60;96.50
38848;DHT22;24602;44.780;20.408;2022-08-18T01:25:49;25.60;96.10
38848;DHT22;24602;44.780;20.408;2022-08-18T01:28:41;25.50;95.70
38848;DHT22;24602;44.780;20.408;2022-08-18T01:34:25;25.60;95.80
38848;DHT22;24602;44.780;20.408;2022-08-18T01:36:55;25.60;95.90
38848;DHT22;24602;44.780;20.408;2022-08-18T01:39:25;25.50;96.00
38848;DHT22;24602;44.780;20.408;2022-08-18T01:42:17;25.40;95.70
38848;DHT22;24602;44.780;20.408;2022-08-18T01:44:49;25.30;95.10
38848;DHT22;24602;44.780;20.408;2022-08-18T01:47:35;25.20;95.20
38848;DHT22;24602;44.780;20.408;2022-08-18T01:50:16;25.10;95.50
38848;DHT22;24602;44.780;20.408;2022-08-18T01:52:47;25.10;95.60
38848;DHT22;24602;44.780;20.408;2022-08-18T01:55:20;25.00;95.60
38848;DHT22;24602;44.780;20.408;2022-08-18T01:57:48;25.00;96.10
38848;DHT22;24602;44.780;20.408;2022-08-18T02:00:20;25.00;95.90
38848;DHT22;24602;44.780;20.408;2022-08-18T02:02:53;25.00;96.10
38848;DHT22;24602;44.780;20.408;2022-08-18T02:05:37;24.90;96.10
38848;DHT22;24602;44.780;20.408;2022-08-18T02:08:09;24.90;96.00
38848;DHT22;24602;44.780;20.408;2022-08-18T02:10:45;24.70;96.50
38848;DHT22;24602;44.780;20.408;2022-08-18T02:13:16;24.70;96.60
38848;DHT22;24602;44.780;20.408;2022-08-18T02:15:48;24.70;96.50
38848;DHT22;24602;44.780;20.408;2022-08-18T02:18:23;24.70;96.80
38848;DHT22;24602;44.780;20.408;2022-08-18T02:21:15;24.70;96.90
38848;DHT22;24602;44.780;20.408;2022-08-18T02:23:47;24.70;96.90
38848;DHT22;24602;44.780;20.408;2022-08-18T02:26:22;24.80;97.00
38848;DHT22;24602;44.780;20.408;2022-08-18T02:28:51;24.90;96.90
38848;DHT22;24602;44.780;20.408;2022-08-18T02:31:23;25.00;96.90
38848;DHT22;24602;44.780;20.408;2022-08-18T02:33:55;24.90;96.90
38848;DHT22;24602;44.780;20.408;2022-08-18T02:36:27;24.90;96.90
38848;DHT22;24602;44.780;20.408;2022-08-18T02:38:57;24.90;96.70
38848;DHT22;24602;44.780;20.408;2022-08-18T02:41:28;25.00;96.80
38848;DHT22;24602;44.780;20.408;2022-08-18T02:43:59;24.90;96.90
38848;DHT22;24602;44.780;20.408;2022-08-18T02:46:29;24.90;97.20
38848;DHT22;24602;44.780;20.408;2022-08-18T02:48:59;24.90;97.30
38848;DHT22;24602;44.780;20.408;2022-08-18T02:51:31;24.90;97.90
38848;DHT22;24602;44.780;20.408;2022-08-18T02:54:01;24.90;98.30
38848;DHT22;24602;44.780;20.408;2022-08-18T02:56:32;24.80;98.40
38848;DHT22;24602;44.780;20.408;2022-08-18T02:59:13;24.80;98.60
38848;DHT22;24602;44.780;20.408;2022-08-18T03:01:49;24.80;99.00
38848;DHT22;24602;44.780;20.408;2022-08-18T03:04:29;24.70;98.80
38848;DHT22;24602;44.780;20.408;2022-08-18T03:07:06;24.70;98.80
38848;DHT22;24602;44.780;20.408;2022-08-18T03:09:37;24.70;98.90
38848;DHT22;24602;44.780;20.408;2022-08-18T03:12:09;24.70;99.00
38848;DHT22;24602;44.780;20.408;2022-08-18T03:14:41;24.70;99.40
38848;DHT22;24602;44.780;20.408;2022-08-18T03:17:12;24.70;99.50
38848;DHT22;24602;44.780;20.408;2022-08-18T03:19:44;24.70;99.40
38848;DHT22;24602;44.780;20.408;2022-08-18T03:22:14;24.70;99.00
38848;DHT22;24602;44.780;20.408;2022-08-18T03:24:56;24.70;99.30
38848;DHT22;24602;44.780;20.408;2022-08-18T03:27:26;24.60;99.70
38848;DHT22;24602;44.780;20.408;2022-08-18T03:29:58;24.60;99.90
38848;DHT22;24602;44.780;20.408;2022-08-18T03:32:40;24.60;99.90
38848;DHT22;24602;44.780;20.408;2022-08-18T03:35:16;24.50;99.90
38848;DHT22;24602;44.780;20.408;2022-08-18T03:37:46;24.50;99.90
38848;DHT22;24602;44.780;20.408;2022-08-18T03:40:15;24.50;99.90
38848;DHT22;24602;44.780;20.408;2022-08-18T03:42:43;24.50;99.90
38848;DHT22;24602;44.780;20.408;2022-08-18T03:45:13;24.50;99.90
38848;DHT22;24602;44.780;20.408;2022-08-18T03:47:45;24.40;99.90
38848;DHT22;24602;44.780;20.408;2022-08-18T03:50:20;24.40;99.90
38848;DHT22;24602;44.780;20.408;2022-08-18T03:52:55;24.40;99.90
38848;DHT22;24602;44.780;20.408;2022-08-18T03:55:28;24.40;99.90
38848;DHT22;24602;44.780;20.408;2022-08-18T03:58:00;24.40;99.90
38848;DHT22;24602;44.780;20.408;2022-08-18T04:00:32;24.40;99.90
38848;DHT22;24602;44.780;20.408;2022-08-18T04:03:05;24.40;99.90
38848;DHT22;24602;44.780;20.408;2022-08-18T04:05:38;24.40;99.90
38848;DHT22;24602;44.780;20.408;2022-08-18T04:08:07;24.40;99.90
38848;DHT22;24602;44.780;20.408;2022-08-18T04:10:39;24.40;99.90
38848;DHT22;24602;44.780;20.408;2022-08-18T04:13:23;24.40;99.90
38848;DHT22;24602;44.780;20.408;2022-08-18T04:15:58;24.40;99.90
38848;DHT22;24602;44.780;20.408;2022-08-18T04:18:29;24.30;99.90
38848;DHT22;24602;44.780;20.408;2022-08-18T04:21:23;24.30;99.90
38848;DHT22;24602;44.780;20.408;2022-08-18T04:23:54;24.30;99.90
38848;DHT22;24602;44.780;20.408;2022-08-18T04:26:37;24.30;99.90
38848;DHT22;24602;44.780;20.408;2022-08-18T04:29:10;24.40;99.90
38848;DHT22;24602;44.780;20.408;2022-08-18T04:31:45;24.40;99.90
38848;DHT22;24602;44.780;20.408;2022-08-18T04:34:18;24.40;99.90
38848;DHT22;24602;44.780;20.408;2022-08-18T04:36:47;24.40;99.90
38848;DHT22;24602;44.780;20.408;2022-08-18T04:39:18;24.40;99.90
38848;DHT22;24602;44.780;20.408;2022-08-18T04:42:09;24.40;99.90
38848;DHT22;24602;44.780;20.408;2022-08-18T04:44:59;24.50;99.90
38848;DHT22;24602;44.780;20.408;2022-08-18T04:47:52;24.50;99.90
38848;DHT22;24602;44.780;20.408;2022-08-18T04:50:31;24.50;99.90
38848;DHT22;24602;44.780;20.408;2022-08-18T04:53:03;24.60;99.90
38848;DHT22;24602;44.780;20.408;2022-08-18T04:55:57;24.70;99.90
38848;DHT22;24602;44.780;20.408;2022-08-18T04:58:29;24.70;99.90
38848;DHT22;24602;44.780;20.408;2022-08-18T05:01:03;24.70;99.90
38848;DHT22;24602;44.780;20.408;2022-08-18T05:03:33;24.70;99.90
38848;DHT22;24602;44.780;20.408;2022-08-18T05:06:17;24.70;99.90
38848;DHT22;24602;44.780;20.408;2022-08-18T05:08:46;24.80;99.90
38848;DHT22;24602;44.780;20.408;2022-08-18T05:11:17;24.80;99.90
38848;DHT22;24602;44.780;20.408;2022-08-18T05:13:46;24.80;99.90
38848;DHT22;24602;44.780;20.408;2022-08-18T05:16:15;24.80;99.90
38848;DHT22;24602;44.780;20.408;2022-08-18T05:18:54;24.80;99.90
38848;DHT22;24602;44.780;20.408;2022-08-18T05:21:23;24.90;99.90
38848;DHT22;24602;44.780;20.408;2022-08-18T05:23:53;24.90;99.90
38848;DHT22;24602;44.780;20.408;2022-08-18T05:26:25;24.90;99.90
38848;DHT22;24602;44.780;20.408;2022-08-18T05:28:59;25.00;99.90
38848;DHT22;24602;44.780;20.408;2022-08-18T05:31:47;25.10;99.90
38848;DHT22;24602;44.780;20.408;2022-08-18T05:34:20;25.10;99.90
38848;DHT22;24602;44.780;20.408;2022-08-18T05:37:17;25.20;99.90
38848;DHT22;24602;44.780;20.408;2022-08-18T05:40:04;25.30;99.90
38848;DHT22;24602;44.780;20.408;2022-08-18T05:42:39;25.30;99.90
38848;DHT22;24602;44.780;20.408;2022-08-18T05:45:19;25.30;99.90
38848;DHT22;24602;44.780;20.408;2022-08-18T05:48:00;25.40;99.90
38848;DHT22;24602;44.780;20.408;2022-08-18T05:50:34;25.40;99.90
38848;DHT22;24602;44.780;20.408;2022-08-18T05:53:14;25.50;99.90
38848;DHT22;24602;44.780;20.408;2022-08-18T05:56:10;25.60;99.90
38848;DHT22;24602;44.780;20.408;2022-08-18T05:59:00;25.60;99.90
38848;DHT22;24602;44.780;20.408;2022-08-18T06:01:43;25.60;99.90
38848;DHT22;24602;44.780;20.408;2022-08-18T06:04:52;25.70;99.90
38848;DHT22;24602;44.780;20.408;2022-08-18T06:07:48;25.70;99.90
38848;DHT22;24602;44.780;20.408;2022-08-18T06:10:19;25.80;99.90
38848;DHT22;24602;44.780;20.408;2022-08-18T06:12:55;25.80;99.90
38848;DHT22;24602;44.780;20.408;2022-08-18T06:21:23;25.90;99.70
38848;DHT22;24602;44.780;20.408;2022-08-18T06:28:06;26.10;99.70
38848;DHT22;24602;44.780;20.408;2022-08-18T06:39:49;26.30;99.00
38848;DHT22;24602;44.780;20.408;2022-08-18T06:42:31;26.40;98.70
38848;DHT22;24602;44.780;20.408;2022-08-18T06:45:10;26.40;98.70
38848;DHT22;24602;44.780;20.408;2022-08-18T06:51:13;26.40;99.00
38848;DHT22;24602;44.780;20.408;2022-08-18T06:54:06;26.40;98.30
38848;DHT22;24602;44.780;20.408;2022-08-18T06:56:50;26.40;98.30
38848;DHT22;24602;44.780;20.408;2022-08-18T07:01:53;26.60;98.10
38848;DHT22;24602;44.780;20.408;2022-08-18T07:04:56;26.60;98.00
38848;DHT22;24602;44.780;20.408;2022-08-18T07:07:37;26.70;96.80
38848;DHT22;24602;44.780;20.408;2022-08-18T07:12:48;26.80;96.40
38848;DHT22;24602;44.780;20.408;2022-08-18T07:15:26;26.90;97.30
38848;DHT22;24602;44.780;20.408;2022-08-18T07:18:03;26.90;96.80
38848;DHT22;24602;44.780;20.408;2022-08-18T07:20:47;27.00;96.50
38848;DHT22;24602;44.780;20.408;2022-08-18T07:23:30;27.00;92.90
38848;DHT22;24602;44.780;20.408;2022-08-18T07:26:15;27.10;92.10
38848;DHT22;24602;44.780;20.408;2022-08-18T07:28:51;27.10;91.80
38848;DHT22;24602;44.780;20.408;2022-08-18T07:31:30;27.20;93.50
38848;DHT22;24602;44.780;20.408;2022-08-18T07:34:24;27.20;93.30
38848;DHT22;24602;44.780;20.408;2022-08-18T07:37:03;27.30;94.10
38848;DHT22;24602;44.780;20.408;2022-08-18T07:39:46;27.40;94.20
38848;DHT22;24602;44.780;20.408;2022-08-18T07:42:38;27.40;94.70
38848;DHT22;24602;44.780;20.408;2022-08-18T07:45:42;27.40;94.10
38848;DHT22;24602;44.780;20.408;2022-08-18T07:48:29;27.50;94.10
38848;DHT22;24602;44.780;20.408;2022-08-18T07:51:23;27.60;93.80
38848;DHT22;24602;44.780;20.408;2022-08-18T07:57:33;27.80;93.40
38848;DHT22;24602;44.780;20.408;2022-08-18T08:06:43;28.10;93.60
38848;DHT22;24602;44.780;20.408;2022-08-18T08:09:42;28.10;93.90
38848;DHT22;24602;44.780;20.408;2022-08-18T08:18:21;28.30;95.70
38848;DHT22;24602;44.780;20.408;2022-08-18T08:20:54;28.30;96.70
38848;DHT22;24602;44.780;20.408;2022-08-18T08:26:22;28.50;94.60
38848;DHT22;24602;44.780;20.408;2022-08-18T08:32:14;28.60;94.10
38848;DHT22;24602;44.780;20.408;2022-08-18T08:34:53;28.70;94.20
38848;DHT22;24602;44.780;20.408;2022-08-18T08:37:56;28.80;94.90
38848;DHT22;24602;44.780;20.408;2022-08-18T08:41:10;28.70;94.70
38848;DHT22;24602;44.780;20.408;2022-08-18T08:43:51;28.80;94.50
38848;DHT22;24602;44.780;20.408;2022-08-18T08:46:30;28.80;94.90
38848;DHT22;24602;44.780;20.408;2022-08-18T08:49:10;28.80;94.30
38848;DHT22;24602;44.780;20.408;2022-08-18T08:51:59;28.80;94.20
38848;DHT22;24602;44.780;20.408;2022-08-18T08:54:57;28.90;93.00
38848;DHT22;24602;44.780;20.408;2022-08-18T08:57:52;28.90;93.60
38848;DHT22;24602;44.780;20.408;2022-08-18T09:00:27;29.00;92.90
38848;DHT22;24602;44.780;20.408;2022-08-18T09:03:42;29.00;93.60
38848;DHT22;24602;44.780;20.408;2022-08-18T09:09:21;29.20;93.20
38848;DHT22;24602;44.780;20.408;2022-08-18T09:21:05;29.50;90.70
38848;DHT22;24602;44.780;20.408;2022-08-18T09:23:45;29.50;90.30
38848;DHT22;24602;44.780;20.408;2022-08-18T09:26:46;29.70;90.80
38848;DHT22;24602;44.780;20.408;2022-08-18T09:38:09;29.80;90.20
38848;DHT22;24602;44.780;20.408;2022-08-18T09:41:10;29.80;90.10
38848;DHT22;24602;44.780;20.408;2022-08-18T09:44:10;29.80;87.60
38848;DHT22;24602;44.780;20.408;2022-08-18T09:46:56;30.00;86.20
38848;DHT22;24602;44.780;20.408;2022-08-18T09:49:39;30.00;87.40
38848;DHT22;24602;44.780;20.408;2022-08-18T09:55:38;30.20;86.70
38848;DHT22;24602;44.780;20.408;2022-08-18T10:01:38;30.30;84.40
38848;DHT22;24602;44.780;20.408;2022-08-18T10:04:40;30.40;82.80
38848;DHT22;24602;44.780;20.408;2022-08-18T10:07:37;30.50;83.60
38848;DHT22;24602;44.780;20.408;2022-08-18T10:19:48;30.80;82.20
38848;DHT22;24602;44.780;20.408;2022-08-18T10:22:51;30.80;77.30
38848;DHT22;24602;44.780;20.408;2022-08-18T10:25:43;30.90;75.90
38848;DHT22;24602;44.780;20.408;2022-08-18T10:28:53;31.00;75.00
38848;DHT22;24602;44.780;20.408;2022-08-18T10:34:49;31.00;71.30
38848;DHT22;24602;44.780;20.408;2022-08-18T10:37:41;31.00;71.00
38848;DHT22;24602;44.780;20.408;2022-08-18T10:40:19;31.00;72.40
38848;DHT22;24602;44.780;20.408;2022-08-18T10:43:09;31.10;68.60
38848;DHT22;24602;44.780;20.408;2022-08-18T10:46:22;31.10;68.40
38848;DHT22;24602;44.780;20.408;2022-08-18T10:49:21;31.00;69.60
38848;DHT22;24602;44.780;20.408;2022-08-18T10:52:18;31.10;68.20
38848;DHT22;24602;44.780;20.408;2022-08-18T10:55:16;31.20;65.80
38848;DHT22;24602;44.780;20.408;2022-08-18T11:02:12;31.20;65.30
38848;DHT22;24602;44.780;20.408;2022-08-18T11:04:49;31.10;64.40
38848;DHT22;24602;44.780;20.408;2022-08-18T11:07:35;31.20;63.80
38848;DHT22;24602;44.780;20.408;2022-08-18T11:10:42;31.20;62.90
38848;DHT22;24602;44.780;20.408;2022-08-18T11:20:17;31.40;62.60
38848;DHT22;24602;44.780;20.408;2022-08-18T11:22:57;31.50;60.30
38848;DHT22;24602;44.780;20.408;2022-08-18T11:25:37;31.50;61.60
38848;DHT22;24602;44.780;20.408;2022-08-18T11:28:21;31.60;59.60
38848;DHT22;24602;44.780;20.408;2022-08-18T11:30:58;31.80;59.70
38848;DHT22;24602;44.780;20.408;2022-08-18T11:33:29;31.90;58.60
38848;DHT22;24602;44.780;20.408;2022-08-18T11:36:02;31.90;59.10
38848;DHT22;24602;44.780;20.408;2022-08-18T11:38:38;32.10;56.20
38848;DHT22;24602;44.780;20.408;2022-08-18T11:41:23;32.10;55.90
38848;DHT22;24602;44.780;20.408;2022-08-18T11:44:18;32.20;54.90
38848;DHT22;24602;44.780;20.408;2022-08-18T11:46:55;32.30;55.80
38848;DHT22;24602;44.780;20.408;2022-08-18T11:49:48;32.30;53.90
38848;DHT22;24602;44.780;20.408;2022-08-18T11:52:28;32.50;52.40
38848;DHT22;24602;44.780;20.408;2022-08-18T11:55:30;32.50;51.60
38848;DHT22;24602;44.780;20.408;2022-08-18T11:58:11;32.60;51.10
38848;DHT22;24602;44.780;20.408;2022-08-18T12:01:01;32.60;51.20
38848;DHT22;24602;44.780;20.408;2022-08-18T12:03:44;32.70;49.90
38848;DHT22;24602;44.780;20.408;2022-08-18T12:06:29;32.70;51.10
38848;DHT22;24602;44.780;20.408;2022-08-18T12:09:38;32.70;49.80
38848;DHT22;24602;44.780;20.408;2022-08-18T12:12:44;32.80;47.90
38848;DHT22;24602;44.780;20.408;2022-08-18T12:17:53;33.00;47.70
38848;DHT22;24602;44.780;20.408;2022-08-18T12:20:21;33.00;46.80
38848;DHT22;24602;44.780;20.408;2022-08-18T12:22:55;33.10;46.30
38848;DHT22;24602;44.780;20.408;2022-08-18T12:25:25;33.20;45.20
38848;DHT22;24602;44.780;20.408;2022-08-18T12:27:57;33.30;44.20
38848;DHT22;24602;44.780;20.408;2022-08-18T12:30:29;33.40;44.50
38848;DHT22;24602;44.780;20.408;2022-08-18T12:33:03;33.50;44.80
38848;DHT22;24602;44.780;20.408;2022-08-18T12:35:38;33.60;44.70
38848;DHT22;24602;44.780;20.408;2022-08-18T12:38:11;33.70;45.30
38848;DHT22;24602;44.780;20.408;2022-08-18T12:40:43;33.80;45.00
38848;DHT22;24602;44.780;20.408;2022-08-18T12:43:13;33.80;44.50
38848;DHT22;24602;44.780;20.408;2022-08-18T12:45:43;33.70;44.10
38848;DHT22;24602;44.780;20.408;2022-08-18T12:48:13;33.90;45.00
38848;DHT22;24602;44.780;20.408;2022-08-18T12:50:42;34.20;44.50
38848;DHT22;24602;44.780;20.408;2022-08-18T12:53:33;34.30;45.40
38848;DHT22;24602;44.780;20.408;2022-08-18T12:56:29;34.50;44.80
38848;DHT22;24602;44.780;20.408;2022-08-18T12:59:07;34.60;43.60
38848;DHT22;24602;44.780;20.408;2022-08-18T13:01:40;34.90;43.70
38848;DHT22;24602;44.780;20.408;2022-08-18T13:04:10;35.40;42.20
38848;DHT22;24602;44.780;20.408;2022-08-18T13:06:49;35.90;41.20
38848;DHT22;24602;44.780;20.408;2022-08-18T13:09:35;36.50;40.40
38848;DHT22;24602;44.780;20.408;2022-08-18T13:12:21;37.80;38.20
38848;DHT22;24602;44.780;20.408;2022-08-18T13:14:56;39.60;36.80
38848;DHT22;24602;44.780;20.408;2022-08-18T13:17:37;41.20;34.70
38848;DHT22;24602;44.780;20.408;2022-08-18T13:20:14;42.50;32.30
38848;DHT22;24602;44.780;20.408;2022-08-18T13:22:46;43.60;31.00
38848;DHT22;24602;44.780;20.408;2022-08-18T13:25:17;44.40;30.10
38848;DHT22;24602;44.780;20.408;2022-08-18T13:28:06;45.00;29.30
38848;DHT22;24602;44.780;20.408;2022-08-18T13:30:36;45.30;28.40
38848;DHT22;24602;44.780;20.408;2022-08-18T13:33:07;45.10;28.60
38848;DHT22;24602;44.780;20.408;2022-08-18T13:35:58;45.70;28.50
38848;DHT22;24602;44.780;20.408;2022-08-18T13:41:05;47.50;26.40
38848;DHT22;24602;44.780;20.408;2022-08-18T13:43:44;48.00;26.10
38848;DHT22;24602;44.780;20.408;2022-08-18T13:46:17;48.00;25.60
38848;DHT22;24602;44.780;20.408;2022-08-18T13:48:57;48.00;25.70
38848;DHT22;24602;44.780;20.408;2022-08-18T13:51:33;48.20;25.40
38848;DHT22;24602;44.780;20.408;2022-08-18T13:54:17;48.90;25.50
38848;DHT22;24602;44.780;20.408;2022-08-18T13:56:59;49.40;25.20
38848;DHT22;24602;44.780;20.408;2022-08-18T13:59:31;49.40;25.50
38848;DHT22;24602;44.780;20.408;2022-08-18T14:02:06;49.40;24.90
38848;DHT22;24602;44.780;20.408;2022-08-18T14:04:39;49.30;24.70
38848;DHT22;24602;44.780;20.408;2022-08-18T14:07:11;49.10;24.90
38848;DHT22;24602;44.780;20.408;2022-08-18T14:09:45;48.50;25.30
38848;DHT22;24602;44.780;20.408;2022-08-18T14:12:22;48.30;24.90
38848;DHT22;24602;44.780;20.408;2022-08-18T14:15:02;48.00;25.00
38848;DHT22;24602;44.780;20.408;2022-08-18T14:17:36;47.70;25.40
38848;DHT22;24602;44.780;20.408;2022-08-18T14:20:11;47.20;25.80
38848;DHT22;24602;44.780;20.408;2022-08-18T14:23:03;47.10;25.10
38848;DHT22;24602;44.780;20.408;2022-08-18T14:26:01;46.80;25.30
38848;DHT22;24602;44.780;20.408;2022-08-18T14:28:55;46.00;26.20
38848;DHT22;24602;44.780;20.408;2022-08-18T14:31:31;45.70;26.10
38848;DHT22;24602;44.780;20.408;2022-08-18T14:34:03;44.80;25.90
38848;DHT22;24602;44.780;20.408;2022-08-18T14:36:34;44.40;26.30
38848;DHT22;24602;44.780;20.408;2022-08-18T14:39:06;44.30;26.00
38848;DHT22;24602;44.780;20.408;2022-08-18T14:41:35;44.30;26.20
38848;DHT22;24602;44.780;20.408;2022-08-18T14:44:17;43.50;26.40
38848;DHT22;24602;44.780;20.408;2022-08-18T14:46:53;43.20;26.50
38848;DHT22;24602;44.780;20.408;2022-08-18T14:49:28;43.00;27.20
38848;DHT22;24602;44.780;20.408;2022-08-18T14:52:11;43.10;27.20
38848;DHT22;24602;44.780;20.408;2022-08-18T14:54:44;43.00;27.50
38848;DHT22;24602;44.780;20.408;2022-08-18T14:57:17;42.90;27.70
38848;DHT22;24602;44.780;20.408;2022-08-18T14:59:52;42.90;27.10
38848;DHT22;24602;44.780;20.408;2022-08-18T15:02:24;42.90;27.90
38848;DHT22;24602;44.780;20.408;2022-08-18T15:04:56;42.90;28.80
38848;DHT22;24602;44.780;20.408;2022-08-18T15:07:31;42.70;28.40
38848;DHT22;24602;44.780;20.408;2022-08-18T15:10:06;42.50;28.50
38848;DHT22;24602;44.780;20.408;2022-08-18T15:12:46;41.70;27.50
38848;DHT22;24602;44.780;20.408;2022-08-18T15:15:16;40.80;28.50
38848;DHT22;24602;44.780;20.408;2022-08-18T15:17:45;40.90;29.80
38848;DHT22;24602;44.780;20.408;2022-08-18T15:20:22;41.10;29.60
38848;DHT22;24602;44.780;20.408;2022-08-18T15:23:03;41.20;29.80
38848;DHT22;24602;44.780;20.408;2022-08-18T15:25:56;41.30;30.00
38848;DHT22;24602;44.780;20.408;2022-08-18T15:28:27;40.80;30.00
38848;DHT22;24602;44.780;20.408;2022-08-18T15:31:00;40.50;30.30
38848;DHT22;24602;44.780;20.408;2022-08-18T15:33:52;40.20;30.70
38848;DHT22;24602;44.780;20.408;2022-08-18T15:36:25;40.00;30.20
38848;DHT22;24602;44.780;20.408;2022-08-18T15:38:58;39.60;30.70
38848;DHT22;24602;44.780;20.408;2022-08-18T15:41:39;39.70;30.80
38848;DHT22;24602;44.780;20.408;2022-08-18T15:44:15;39.70;30.10
38848;DHT22;24602;44.780;20.408;2022-08-18T15:46:45;39.90;30.20
38848;DHT22;24602;44.780;20.408;2022-08-18T15:49:23;39.90;30.10
38848;DHT22;24602;44.780;20.408;2022-08-18T15:51:53;40.00;30.30
38848;DHT22;24602;44.780;20.408;2022-08-18T15:54:24;40.10;29.90
38848;DHT22;24602;44.780;20.408;2022-08-18T15:56:55;40.20;29.90
38848;DHT22;24602;44.780;20.408;2022-08-18T15:59:33;40.20;30.00
38848;DHT22;24602;44.780;20.408;2022-08-18T16:02:09;40.20;30.40
38848;DHT22;24602;44.780;20.408;2022-08-18T16:04:45;40.20;30.70
38848;DHT22;24602;44.780;20.408;2022-08-18T16:07:18;40.20;29.80
38848;DHT22;24602;44.780;20.408;2022-08-18T16:10:06;40.10;29.60
38848;DHT22;24602;44.780;20.408;2022-08-18T16:12:34;39.90;29.70
38848;DHT22;24602;44.780;20.408;2022-08-18T16:15:14;39.80;30.00
38848;DHT22;24602;44.780;20.408;2022-08-18T16:17:51;39.60;30.30
38848;DHT22;24602;44.780;20.408;2022-08-18T16:20:31;39.60;30.60
38848;DHT22;24602;44.780;20.408;2022-08-18T16:23:11;39.50;30.40
38848;DHT22;24602;44.780;20.408;2022-08-18T16:25:42;39.40;30.50
38848;DHT22;24602;44.780;20.408;2022-08-18T16:28:12;39.30;30.50
38848;DHT22;24602;44.780;20.408;2022-08-18T16:30:42;39.20;31.20
38848;DHT22;24602;44.780;20.408;2022-08-18T16:33:11;39.00;32.30
38848;DHT22;24602;44.780;20.408;2022-08-18T16:35:41;38.80;32.90
38848;DHT22;24602;44.780;20.408;2022-08-18T16:38:11;38.60;33.00
38848;DHT22;24602;44.780;20.408;2022-08-18T16:40:39;38.40;32.20
38848;DHT22;24602;44.780;20.408;2022-08-18T16:43:10;38.10;32.40
38848;DHT22;24602;44.780;20.408;2022-08-18T16:45:42;37.90;32.70
38848;DHT22;24602;44.780;20.408;2022-08-18T16:48:14;37.80;33.00
38848;DHT22;24602;44.780;20.408;2022-08-18T16:50:45;37.60;33.60
38848;DHT22;24602;44.780;20.408;2022-08-18T16:53:15;37.40;34.60
38848;DHT22;24602;44.780;20.408;2022-08-18T16:55:46;37.30;36.00
38848;DHT22;24602;44.780;20.408;2022-08-18T16:58:15;37.10;36.90
38848;DHT22;24602;44.780;20.408;2022-08-18T17:01:06;37.00;37.80
38848;DHT22;24602;44.780;20.408;2022-08-18T17:04:19;36.80;38.00
38848;DHT22;24602;44.780;20.408;2022-08-18T17:06:50;36.60;37.30
38848;DHT22;24602;44.780;20.408;2022-08-18T17:09:20;36.40;37.10
38848;DHT22;24602;44.780;20.408;2022-08-18T17:11:51;36.30;38.00
38848;DHT22;24602;44.780;20.408;2022-08-18T17:14:22;36.20;39.60
38848;DHT22;24602;44.780;20.408;2022-08-18T17:16:53;36.00;40.70
38848;DHT22;24602;44.780;20.408;2022-08-18T17:19:23;35.90;41.70
38848;DHT22;24602;44.780;20.408;2022-08-18T17:21:53;35.70;41.80
38848;DHT22;24602;44.780;20.408;2022-08-18T17:24:25;35.50;41.70
38848;DHT22;24602;44.780;20.408;2022-08-18T17:27:25;35.40;41.60
38848;DHT22;24602;44.780;20.408;2022-08-18T17:30:07;35.30;41.50
38848;DHT22;24602;44.780;20.408;2022-08-18T17:35:15;35.00;41.90
38848;DHT22;24602;44.780;20.408;2022-08-18T17:38:04;34.90;42.00
38848;DHT22;24602;44.780;20.408;2022-08-18T17:40:44;34.80;41.60
38848;DHT22;24602;44.780;20.408;2022-08-18T17:43:24;34.70;40.70
38848;DHT22;24602;44.780;20.408;2022-08-18T17:46:27;34.60;40.90
38848;DHT22;24602;44.780;20.408;2022-08-18T17:49:27;34.50;40.90
38848;DHT22;24602;44.780;20.408;2022-08-18T17:52:47;34.40;41.00
38848;DHT22;24602;44.780;20.408;2022-08-18T17:55:25;34.30;41.00
38848;DHT22;24602;44.780;20.408;2022-08-18T17:58:13;34.20;40.80
38848;DHT22;24602;44.780;20.408;2022-08-18T18:00:46;34.20;40.60
38848;DHT22;24602;44.780;20.408;2022-08-18T18:03:16;34.10;40.40
38848;DHT22;24602;44.780;20.408;2022-08-18T18:06:45;34.10;41.10
38848;DHT22;24602;44.780;20.408;2022-08-18T18:09:11;34.00;41.80
38848;DHT22;24602;44.780;20.408;2022-08-18T18:11:45;33.90;42.60
38848;DHT22;24602;44.780;20.408;2022-08-18T18:17:31;33.70;43.50
38848;DHT22;24602;44.780;20.408;2022-08-18T18:20:24;33.60;43.20
38848;DHT22;24602;44.780;20.408;2022-08-18T18:23:22;33.50;43.70
38848;DHT22;24602;44.780;20.408;2022-08-18T18:25:52;33.40;44.50